Time;durP1;ratioP1;P1;durP2;ratioP2;P2;SDS_P1;SDS_P2;PMS_P1;PMS_P2;Temp;Humidity;BMP_temperature;BMP_pressure;BME280_temperature;BME280_humidity;BME280_pressure;Samples;Min_cycle;Max_cycle;Signal;HPM_P1;HPM_P2
2023/02/27 00:00:17;;;;;;;;;;;;;;;10.27;66.96;102650.38;1272946;23;625;-64
2023/02/27 00:01:07;;;;;;;;;;;;;;;10.28;66.60;102653.00;1273384;23;641;-64
2023/02/27 00:01:57;;;;;;;;;;;;;;;10.27;67.02;102645.94;1271507;23;641;-65
2023/02/27 00:02:48;;;;;;;;;;;;;;;10.27;66.69;102651.25;1271457;23;693;-66
2023/02/27 00:03:39;;;;;;;;;;;;;;;10.28;67.19;102650.34;1269539;23;693;-65
2023/02/27 00:04:29;;;;;;;;;;;;;;;10.28;66.75;102654.78;1271642;23;615;-65
2023/02/27 00:05:21;;;;;;;;;;;;;;;10.28;66.20;102661.00;1272559;23;638;-65
2023/02/27 00:06:12;;;;;;;;;;;;;;;10.29;66.81;102659.19;1269693;23;634;-64
2023/02/27 00:07:02;;;;;;;;;;;;;;;10.28;66.64;102663.66;1270133;23;626;-64
2023/02/27 00:07:52;;;;;;;;;;;;;;;10.30;66.53;102658.28;1270964;23;639;-64
2023/02/27 00:08:43;;;;;;;;;;;;;;;10.30;66.57;102669.81;1271864;23;637;-65
2023/02/27 00:09:33;;;;;;;;;;;;;;;10.29;66.79;102664.53;1272223;23;661;-64
2023/02/27 00:10:24;;;;;;;;;;;;;;;10.30;66.45;102671.59;1271577;23;618;-64
2023/02/27 00:11:14;;;;;;;;;;;;;;;10.30;66.76;102663.59;1271602;23;615;-65
2023/02/27 00:12:05;;;;;;;;;;;;;;;10.29;66.70;102667.19;1270154;23;622;-65
2023/02/27 00:12:55;;;;;;;;;;;;;;;10.29;66.67;102661.88;1272077;23;637;-65
2023/02/27 00:13:45;;;;;;;;;;;;;;;10.28;66.63;102665.44;1273114;23;650;-65
2023/02/27 00:14:36;;;;;;;;;;;;;;;10.29;66.52;102667.19;1271459;23;688;-64
2023/02/27 00:15:29;;;;;;;;;;;;;;;10.25;66.81;102665.56;1273220;23;688;-65
2023/02/27 00:16:20;;;;;;;;;;;;;;;10.25;66.65;102665.56;1271482;23;645;-65
2023/02/27 00:17:10;;;;;;;;;;;;;;;10.26;66.16;102659.31;1271662;23;681;-64
2023/02/27 00:18:00;;;;;;;;;;;;;;;10.24;66.39;102661.16;1271339;23;623;-63
2023/02/27 00:18:51;;;;;;;;;;;;;;;10.20;66.74;102663.06;1271459;23;610;-64
2023/02/27 00:19:41;;;;;;;;;;;;;;;10.20;66.64;102659.53;1272163;23;626;-64
2023/02/27 00:20:36;;;;;;;;;;;;;;;10.21;66.72;102655.94;1271460;23;634;-64
2023/02/27 00:21:27;;;;;;;;;;;;;;;10.23;67.00;102657.59;1271538;23;654;-64
2023/02/27 00:22:17;;;;;;;;;;;;;;;10.22;66.59;102653.19;1271053;23;670;-64
2023/02/27 00:23:09;;;;;;;;;;;;;;;10.20;66.64;102649.75;1271282;23;1884;-64
2023/02/27 00:23:59;;;;;;;;;;;;;;;10.21;67.19;102653.28;1269564;23;631;-64
2023/02/27 00:24:50;;;;;;;;;;;;;;;10.20;66.48;102648.88;1271428;23;811;-63
2023/02/27 00:25:40;;;;;;;;;;;;;;;10.20;66.96;102651.53;1270563;23;697;-64
2023/02/27 00:26:31;;;;;;;;;;;;;;;10.19;67.09;102650.66;1272016;23;598;-64
2023/02/27 00:27:21;;;;;;;;;;;;;;;10.20;66.65;102656.88;1272118;23;622;-64
2023/02/27 00:28:11;;;;;;;;;;;;;;;10.19;66.48;102650.66;1271704;23;654;-64
2023/02/27 00:29:02;;;;;;;;;;;;;;;10.21;66.92;102653.28;1271548;23;677;-64
2023/02/27 00:29:52;;;;;;;;;;;;;;;10.21;66.70;102653.28;1272111;23;654;-64
2023/02/27 00:30:43;;;;;;;;;;;;;;;10.21;66.71;102645.28;1271280;23;665;-64
2023/02/27 00:31:33;;;;;;;;;;;;;;;10.23;66.96;102646.09;1272201;23;619;-64
2023/02/27 00:32:24;;;;;;;;;;;;;;;10.21;66.71;102650.63;1271810;23;654;-64
2023/02/27 00:33:14;;;;;;;;;;;;;;;10.19;66.97;102647.13;1271717;23;686;-64
2023/02/27 00:34:04;;;;;;;;;;;;;;;10.20;66.44;102641.75;1271622;23;721;-64
2023/02/27 00:34:55;;;;;;;;;;;;;;;10.19;66.93;102645.34;1271437;23;724;-64
2023/02/27 00:35:45;;;;;;;;;;;;;;;10.20;66.96;102652.41;1272257;23;658;-65
2023/02/27 00:36:36;;;;;;;;;;;;;;;10.19;66.59;102644.47;1269780;23;627;-65
2023/02/27 00:37:26;;;;;;;;;;;;;;;10.18;66.38;102648.03;1272841;23;630;-64
2023/02/27 00:38:17;;;;;;;;;;;;;;;10.18;66.87;102648.03;1273046;23;625;-65
2023/02/27 00:39:07;;;;;;;;;;;;;;;10.20;66.42;102654.22;1271561;23;685;-65
2023/02/27 00:39:57;;;;;;;;;;;;;;;10.20;66.50;102648.88;1271347;23;626;-64
2023/02/27 00:40:48;;;;;;;;;;;;;;;10.17;66.64;102646.28;1271583;23;657;-65
2023/02/27 00:41:38;;;;;;;;;;;;;;;10.15;66.59;102649.00;1269388;23;626;-64
2023/02/27 00:42:30;;;;;;;;;;;;;;;10.15;66.60;102649.00;1273257;23;665;-65
2023/02/27 00:43:20;;;;;;;;;;;;;;;10.17;66.68;102647.16;1270400;23;1908;-65
2023/02/27 00:44:10;;;;;;;;;;;;;;;10.17;66.89;102644.50;1272762;23;644;-64
2023/02/27 00:45:01;;;;;;;;;;;;;;;10.16;66.88;102648.06;1271714;23;640;-64
2023/02/27 00:45:51;;;;;;;;;;;;;;;10.18;66.51;102648.03;1269509;23;649;-64
2023/02/27 00:46:42;;;;;;;;;;;;;;;10.16;67.08;102645.41;1271378;23;760;-64
2023/02/27 00:47:32;;;;;;;;;;;;;;;10.15;66.59;102648.13;1271504;23;634;-64
2023/02/27 00:48:23;;;;;;;;;;;;;;;10.16;67.04;102644.53;1269948;23;645;-64
2023/02/27 00:49:13;;;;;;;;;;;;;;;10.14;66.74;102649.03;1271864;23;630;-64
2023/02/27 00:50:03;;;;;;;;;;;;;;;10.14;66.47;102641.06;1272467;23;611;-65
2023/02/27 00:50:54;;;;;;;;;;;;;;;10.15;67.10;102642.78;1270103;23;661;-65
2023/02/27 00:51:44;;;;;;;;;;;;;;;10.15;66.54;102643.66;1272475;23;676;-65
2023/02/27 00:52:35;;;;;;;;;;;;;;;10.16;66.76;102644.53;1271647;23;722;-64
2023/02/27 00:53:25;;;;;;;;;;;;;;;10.16;66.45;102641.88;1271339;23;618;-65
2023/02/27 00:54:16;;;;;;;;;;;;;;;10.16;66.52;102647.19;1271640;23;618;-65
2023/02/27 00:55:06;;;;;;;;;;;;;;;10.17;66.76;102651.59;1271622;23;656;-65
2023/02/27 00:55:57;;;;;;;;;;;;;;;10.14;66.79;102649.91;1270140;23;606;-65
2023/02/27 00:56:47;;;;;;;;;;;;;;;10.14;66.53;102651.72;1271907;23;607;-64
2023/02/27 00:57:38;;;;;;;;;;;;;;;10.16;66.90;102649.88;1271705;23;657;-65
2023/02/27 00:58:28;;;;;;;;;;;;;;;10.17;66.89;102646.28;1270463;23;1094;-64
2023/02/27 00:59:19;;;;;;;;;;;;;;;10.17;66.46;102644.50;1271809;23;665;-65
2023/02/27 01:00:09;;;;;;;;;;;;;;;10.16;66.97;102652.53;1272034;23;614;-64
2023/02/27 01:01:00;;;;;;;;;;;;;;;10.12;66.67;102642.91;1271958;23;650;-65
2023/02/27 01:01:50;;;;;;;;;;;;;;;10.10;66.78;102646.47;1271947;23;654;-64
2023/02/27 01:02:40;;;;;;;;;;;;;;;10.12;66.78;102641.09;1272836;23;763;-64
2023/02/27 01:03:31;;;;;;;;;;;;;;;10.12;66.83;102653.56;1272098;23;1913;-65
2023/02/27 01:04:21;;;;;;;;;;;;;;;10.12;66.87;102654.41;1271652;23;755;-64
2023/02/27 01:05:12;;;;;;;;;;;;;;;10.12;66.68;102649.09;1271789;23;649;-64
2023/02/27 01:06:02;;;;;;;;;;;;;;;10.10;67.23;102651.81;1270472;23;657;-64
2023/02/27 01:06:53;;;;;;;;;;;;;;;10.11;66.94;102644.69;1271948;23;590;-64
2023/02/27 01:07:43;;;;;;;;;;;;;;;10.12;66.88;102646.44;1271945;23;626;-64
2023/02/27 01:08:33;;;;;;;;;;;;;;;10.14;66.85;102651.72;1273526;23;696;-64
2023/02/27 01:09:24;;;;;;;;;;;;;;;10.13;67.14;102640.19;1271998;23;598;-64
2023/02/27 01:10:14;;;;;;;;;;;;;;;10.12;66.64;102642.91;1271972;23;653;-64
2023/02/27 01:11:05;;;;;;;;;;;;;;;10.12;66.70;102642.91;1271809;23;697;-64
2023/02/27 01:11:56;;;;;;;;;;;;;;;10.13;66.47;102641.97;1271910;23;657;-64
2023/02/27 01:12:46;;;;;;;;;;;;;;;10.12;66.71;102642.91;1273464;23;616;-65
2023/02/27 01:13:37;;;;;;;;;;;;;;;10.10;66.68;102641.16;1271757;23;634;-64
2023/02/27 01:14:27;;;;;;;;;;;;;;;10.12;66.95;102630.44;1271891;23;638;-64
2023/02/27 01:15:18;;;;;;;;;;;;;;;10.12;66.60;102637.56;1272798;23;707;-64
2023/02/27 01:16:09;;;;;;;;;;;;;;;10.12;66.58;102632.25;1272132;23;602;-64
2023/02/27 01:16:59;;;;;;;;;;;;;;;10.11;66.98;102639.34;1270931;23;737;-63
2023/02/27 01:17:50;;;;;;;;;;;;;;;10.10;66.51;102638.50;1271787;23;961;-64
2023/02/27 01:18:41;;;;;;;;;;;;;;;10.09;66.98;102635.88;1271910;23;665;-64
2023/02/27 01:19:31;;;;;;;;;;;;;;;10.08;66.92;102635.00;1273537;23;673;-63
2023/02/27 01:20:22;;;;;;;;;;;;;;;10.08;66.79;102643.00;1269604;23;598;-63
2023/02/27 01:21:12;;;;;;;;;;;;;;;10.08;66.96;102640.31;1272079;23;669;-64
2023/02/27 01:22:03;;;;;;;;;;;;;;;10.08;67.20;102637.66;1271676;23;599;-63
2023/02/27 01:22:53;;;;;;;;;;;;;;;10.08;66.53;102640.31;1273647;23;644;-64
2023/02/27 01:23:44;;;;;;;;;;;;;;;10.07;66.76;102635.91;1271655;23;697;-64
2023/02/27 01:24:34;;;;;;;;;;;;;;;10.06;66.53;102633.31;1270460;23;630;-63
2023/02/27 01:25:24;;;;;;;;;;;;;;;10.05;66.52;102637.75;1272560;23;740;-64
2023/02/27 01:26:15;;;;;;;;;;;;;;;10.05;66.98;102632.44;1271777;23;634;-64
2023/02/27 01:27:05;;;;;;;;;;;;;;;10.06;66.77;102636.84;1270509;23;682;-64
2023/02/27 01:27:56;;;;;;;;;;;;;;;10.07;67.00;102635.06;1271633;23;658;-64
2023/02/27 01:28:46;;;;;;;;;;;;;;;10.06;66.55;102642.16;1271790;23;641;-64
2023/02/27 01:29:36;;;;;;;;;;;;;;;10.06;66.59;102641.31;1272899;23;748;-64
2023/02/27 01:30:27;;;;;;;;;;;;;;;10.06;67.06;102634.19;1271861;23;657;-63
2023/02/27 01:31:17;;;;;;;;;;;;;;;10.07;66.58;102635.91;1272048;23;626;-64
2023/02/27 01:32:08;;;;;;;;;;;;;;;10.08;66.86;102636.78;1271600;23;647;-63
2023/02/27 01:32:58;;;;;;;;;;;;;;;10.06;66.52;102633.31;1271780;23;641;-63
2023/02/27 01:33:48;;;;;;;;;;;;;;;10.05;66.76;102632.44;1271847;23;636;-63
2023/02/27 01:34:39;;;;;;;;;;;;;;;10.04;67.18;102628.03;1271471;23;664;-64
2023/02/27 01:35:29;;;;;;;;;;;;;;;10.03;66.96;102628.13;1270503;23;862;-64
2023/02/27 01:36:20;;;;;;;;;;;;;;;10.03;66.94;102628.13;1273311;23;645;-64
2023/02/27 01:37:10;;;;;;;;;;;;;;;10.03;66.77;102626.28;1273729;23;672;-63
2023/02/27 01:38:01;;;;;;;;;;;;;;;10.04;66.80;102633.34;1271943;23;638;-64
2023/02/27 01:38:51;;;;;;;;;;;;;;;10.03;66.85;102626.28;1272273;23;614;-64
2023/02/27 01:39:42;;;;;;;;;;;;;;;10.03;66.55;102623.63;1271748;23;649;-63
2023/02/27 01:40:32;;;;;;;;;;;;;;;10.02;67.25;102631.69;1272069;23;610;-63
2023/02/27 01:41:22;;;;;;;;;;;;;;;10.03;66.93;102628.13;1271576;23;650;-64
2023/02/27 01:42:13;;;;;;;;;;;;;;;10.02;67.21;102627.25;1271777;23;653;-64
2023/02/27 01:43:03;;;;;;;;;;;;;;;10.04;66.73;102625.38;1271948;23;629;-64
2023/02/27 01:43:54;;;;;;;;;;;;;;;10.04;66.84;102625.38;1271938;23;645;-65
2023/02/27 01:44:44;;;;;;;;;;;;;;;10.03;66.82;102628.94;1272044;23;721;-64
2023/02/27 01:45:34;;;;;;;;;;;;;;;10.00;66.66;102623.75;1272781;23;650;-64
2023/02/27 01:46:25;;;;;;;;;;;;;;;10.01;66.87;102637.94;1272039;23;658;-65
2023/02/27 01:47:15;;;;;;;;;;;;;;;10.01;66.88;102636.16;1272585;23;590;-64
2023/02/27 01:48:06;;;;;;;;;;;;;;;10.00;67.01;102628.22;1271730;23;622;-64
2023/02/27 01:48:58;;;;;;;;;;;;;;;10.01;66.86;102628.16;1271939;23;641;-64
2023/02/27 01:49:48;;;;;;;;;;;;;;;10.02;66.78;102627.25;1271589;23;657;-64
2023/02/27 01:50:39;;;;;;;;;;;;;;;10.02;66.83;102623.72;1270156;23;631;-64
2023/02/27 01:51:29;;;;;;;;;;;;;;;10.00;66.67;102634.41;1272072;23;622;-64
2023/02/27 01:52:20;;;;;;;;;;;;;;;10.01;66.79;102625.50;1272038;23;661;-64
2023/02/27 01:53:10;;;;;;;;;;;;;;;10.02;66.52;102621.03;1270592;23;693;-64
2023/02/27 01:54:01;;;;;;;;;;;;;;;10.02;66.75;102627.25;1271841;23;657;-65
2023/02/27 01:54:51;;;;;;;;;;;;;;;10.00;66.78;102629.09;1271902;23;633;-64
2023/02/27 01:55:41;;;;;;;;;;;;;;;10.00;66.78;102623.75;1273469;23;786;-64
2023/02/27 01:56:32;;;;;;;;;;;;;;;9.99;67.10;102630.00;1272024;23;646;-64
2023/02/27 01:57:22;;;;;;;;;;;;;;;10.00;66.59;102621.09;1271928;23;662;-64
2023/02/27 01:58:13;;;;;;;;;;;;;;;10.02;66.79;102623.72;1271737;23;656;-64
2023/02/27 01:59:03;;;;;;;;;;;;;;;10.02;66.83;102626.38;1272186;23;622;-64
2023/02/27 01:59:54;;;;;;;;;;;;;;;10.00;66.69;102623.75;1272477;23;615;-65
2023/02/27 02:00:44;;;;;;;;;;;;;;;9.99;67.26;102622.03;1271843;23;631;-64
2023/02/27 02:01:35;;;;;;;;;;;;;;;9.98;66.55;102622.94;1271582;23;602;-63
2023/02/27 02:02:25;;;;;;;;;;;;;;;9.97;66.99;102626.53;1271814;23;692;-64
2023/02/27 02:03:15;;;;;;;;;;;;;;;9.95;67.14;102623.03;1271466;23;1917;-64
2023/02/27 02:04:06;;;;;;;;;;;;;;;9.96;67.01;102618.56;1271727;23;638;-63
2023/02/27 02:04:56;;;;;;;;;;;;;;;9.96;66.70;102624.78;1271863;23;774;-64
2023/02/27 02:05:47;;;;;;;;;;;;;;;9.95;67.35;102625.69;1271821;23;721;-64
2023/02/27 02:06:37;;;;;;;;;;;;;;;9.94;67.23;102618.63;1271790;23;678;-64
2023/02/27 02:07:28;;;;;;;;;;;;;;;9.94;66.74;102626.63;1271586;23;658;-64
2023/02/27 02:08:18;;;;;;;;;;;;;;;9.94;67.34;102621.28;1272064;23;708;-64
2023/02/27 02:09:09;;;;;;;;;;;;;;;9.94;66.88;102623.97;1270531;23;630;-64
2023/02/27 02:09:59;;;;;;;;;;;;;;;9.94;66.95;102623.97;1271858;23;654;-64
2023/02/27 02:10:50;;;;;;;;;;;;;;;9.95;67.21;102625.69;1271675;23;626;-64
2023/02/27 02:11:40;;;;;;;;;;;;;;;9.98;66.71;102630.94;1271812;23;658;-64
2023/02/27 02:12:31;;;;;;;;;;;;;;;9.97;66.76;102634.50;1271652;23;603;-64
2023/02/27 02:13:21;;;;;;;;;;;;;;;9.98;66.92;102633.59;1270513;23;665;-63
2023/02/27 02:14:12;;;;;;;;;;;;;;;9.98;66.93;102632.72;1271797;23;666;-64
2023/02/27 02:15:02;;;;;;;;;;;;;;;9.98;66.80;102635.38;1271980;23;669;-64
2023/02/27 02:15:52;;;;;;;;;;;;;;;9.97;67.00;102626.53;1271909;23;638;-64
2023/02/27 02:16:43;;;;;;;;;;;;;;;9.94;67.06;102625.75;1272524;23;673;-64
2023/02/27 02:17:34;;;;;;;;;;;;;;;9.93;67.29;102627.53;1271828;23;622;-64
2023/02/27 02:18:25;;;;;;;;;;;;;;;9.93;67.14;102632.88;1271027;23;629;-63
2023/02/27 02:19:15;;;;;;;;;;;;;;;9.91;67.05;102629.38;1270429;23;678;-64
2023/02/27 02:20:09;;;;;;;;;;;;;;;9.94;67.02;102626.63;1273557;23;751;-64
2023/02/27 02:20:59;;;;;;;;;;;;;;;9.96;66.97;102631.91;1271630;23;657;-64
2023/02/27 02:21:50;;;;;;;;;;;;;;;9.94;66.76;102634.59;1271899;23;638;-64
2023/02/27 02:22:40;;;;;;;;;;;;;;;9.95;66.71;102631.03;1271937;23;641;-64
2023/02/27 02:23:31;;;;;;;;;;;;;;;9.92;66.50;102631.13;1272365;23;1885;-63
2023/02/27 02:24:21;;;;;;;;;;;;;;;9.91;66.82;102628.50;1270128;23;947;-63
2023/02/27 02:25:11;;;;;;;;;;;;;;;9.90;67.11;102634.75;1272352;23;630;-63
2023/02/27 02:26:02;;;;;;;;;;;;;;;9.89;67.21;102631.22;1271930;23;652;-63
2023/02/27 02:26:53;;;;;;;;;;;;;;;9.90;67.40;102632.09;1272131;23;626;-63
2023/02/27 02:27:43;;;;;;;;;;;;;;;9.89;66.69;102633.88;1270675;23;665;-63
2023/02/27 02:28:34;;;;;;;;;;;;;;;9.89;67.12;102630.34;1269988;23;606;-64
2023/02/27 02:29:24;;;;;;;;;;;;;;;9.88;67.09;102632.13;1270234;23;689;-63
2023/02/27 02:30:14;;;;;;;;;;;;;;;9.88;66.93;102634.81;1272535;23;709;-64
2023/02/27 02:31:05;;;;;;;;;;;;;;;9.89;66.71;102633.00;1270404;23;646;-63
2023/02/27 02:31:55;;;;;;;;;;;;;;;9.89;67.00;102633.00;1270680;23;674;-64
2023/02/27 02:32:46;;;;;;;;;;;;;;;9.88;66.87;102634.81;1271181;23;669;-64
2023/02/27 02:33:36;;;;;;;;;;;;;;;9.87;67.01;102632.19;1272104;23;618;-65
2023/02/27 02:34:27;;;;;;;;;;;;;;;9.86;66.96;102625.13;1271936;23;645;-64
2023/02/27 02:35:17;;;;;;;;;;;;;;;9.85;67.10;102624.28;1271942;23;742;-64
2023/02/27 02:36:07;;;;;;;;;;;;;;;9.86;66.89;102631.31;1272528;23;724;-63
2023/02/27 02:36:58;;;;;;;;;;;;;;;9.87;67.08;102625.06;1271679;23;652;-64
2023/02/27 02:37:49;;;;;;;;;;;;;;;9.87;67.12;102632.19;1271866;23;618;-63
2023/02/27 02:38:39;;;;;;;;;;;;;;;9.87;67.06;102633.06;1271701;23;628;-64
2023/02/27 02:39:29;;;;;;;;;;;;;;;9.86;66.83;102630.44;1272125;23;629;-64
2023/02/27 02:40:20;;;;;;;;;;;;;;;9.84;66.93;102630.53;1271905;23;634;-64
2023/02/27 02:41:10;;;;;;;;;;;;;;;9.83;66.87;102631.44;1271673;23;653;-64
2023/02/27 02:42:01;;;;;;;;;;;;;;;9.82;67.39;102632.38;1270199;23;693;-64
2023/02/27 02:42:51;;;;;;;;;;;;;;;9.82;67.09;102634.16;1273206;23;656;-65
2023/02/27 02:43:41;;;;;;;;;;;;;;;9.83;67.24;102634.09;1273328;23;1966;-64
2023/02/27 02:44:32;;;;;;;;;;;;;;;9.83;67.22;102631.44;1269919;23;612;-64
2023/02/27 02:45:22;;;;;;;;;;;;;;;9.82;66.87;102629.69;1272154;23;661;-64
2023/02/27 02:46:13;;;;;;;;;;;;;;;9.83;67.17;102630.56;1271805;23;641;-63
2023/02/27 02:47:03;;;;;;;;;;;;;;;9.84;66.93;102635.84;1269564;23;639;-63
2023/02/27 02:47:54;;;;;;;;;;;;;;;9.83;67.25;102636.78;1272401;23;649;-64
2023/02/27 02:48:44;;;;;;;;;;;;;;;9.81;67.17;102638.59;1271870;23;685;-63
2023/02/27 02:49:34;;;;;;;;;;;;;;;9.81;67.13;102633.28;1271447;23;657;-63
2023/02/27 02:50:25;;;;;;;;;;;;;;;9.80;67.36;102636.00;1271585;23;625;-63
2023/02/27 02:51:15;;;;;;;;;;;;;;;9.80;67.44;102636.00;1271754;23;587;-64
2023/02/27 02:52:06;;;;;;;;;;;;;;;9.80;67.26;102639.53;1271687;23;768;-63
2023/02/27 02:52:56;;;;;;;;;;;;;;;9.80;67.13;102631.53;1270578;23;674;-64
2023/02/27 02:53:47;;;;;;;;;;;;;;;9.82;67.22;102637.69;1272840;23;661;-64
2023/02/27 02:54:37;;;;;;;;;;;;;;;9.80;67.14;102636.88;1271726;23;673;-64
2023/02/27 02:55:28;;;;;;;;;;;;;;;9.80;66.99;102636.88;1271606;23;654;-64
2023/02/27 02:56:18;;;;;;;;;;;;;;;9.79;67.24;102635.13;1271706;23;700;-64
2023/02/27 02:57:08;;;;;;;;;;;;;;;9.78;67.17;102633.38;1272396;23;638;-64
2023/02/27 02:57:59;;;;;;;;;;;;;;;9.78;66.85;102633.38;1271787;23;642;-64
2023/02/27 02:58:49;;;;;;;;;;;;;;;9.78;66.90;102632.50;1270496;23;673;-64
2023/02/27 02:59:40;;;;;;;;;;;;;;;9.78;67.27;102641.38;1272354;23;662;-64
2023/02/27 03:00:30;;;;;;;;;;;;;;;9.81;67.28;102635.06;1271784;23;689;-64
2023/02/27 03:01:21;;;;;;;;;;;;;;;9.82;67.15;102632.38;1273474;23;664;-64
2023/02/27 03:02:12;;;;;;;;;;;;;;;9.83;67.07;102635.91;1271764;23;657;-64
2023/02/27 03:03:02;;;;;;;;;;;;;;;9.83;67.00;102635.91;1271968;23;622;-64
2023/02/27 03:03:53;;;;;;;;;;;;;;;9.80;66.87;102638.66;1271470;23;594;-63
2023/02/27 03:04:43;;;;;;;;;;;;;;;9.80;66.74;102636.00;1271677;23;635;-64
2023/02/27 03:05:33;;;;;;;;;;;;;;;9.78;67.22;102629.84;1271818;23;603;-63
2023/02/27 03:06:24;;;;;;;;;;;;;;;9.75;67.04;102638.81;1271601;23;808;-64
2023/02/27 03:07:14;;;;;;;;;;;;;;;9.73;67.51;102633.53;1271851;23;677;-64
2023/02/27 03:08:05;;;;;;;;;;;;;;;9.72;67.47;102631.78;1269621;23;606;-64
2023/02/27 03:08:55;;;;;;;;;;;;;;;9.73;67.05;102630.88;1272058;23;685;-64
2023/02/27 03:09:46;;;;;;;;;;;;;;;9.74;67.06;102626.41;1272253;23;746;-65
2023/02/27 03:10:36;;;;;;;;;;;;;;;9.72;67.31;102626.47;1271944;23;634;-64
2023/02/27 03:11:27;;;;;;;;;;;;;;;9.72;67.03;102633.56;1272307;23;637;-65
2023/02/27 03:12:17;;;;;;;;;;;;;;;9.73;67.18;102641.50;1271530;23;717;-65
2023/02/27 03:13:07;;;;;;;;;;;;;;;9.73;67.20;102636.19;1270453;23;701;-66
2023/02/27 03:13:58;;;;;;;;;;;;;;;9.72;67.03;102630.91;1272409;23;619;-64
2023/02/27 03:14:48;;;;;;;;;;;;;;;9.71;67.43;102632.69;1271604;23;665;-64
2023/02/27 03:15:39;;;;;;;;;;;;;;;9.72;67.31;102636.22;1272341;23;677;-64
2023/02/27 03:16:29;;;;;;;;;;;;;;;9.74;67.18;102637.94;1271169;23;626;-64
2023/02/27 03:17:19;;;;;;;;;;;;;;;9.77;67.05;102626.31;1271788;23;606;-64
2023/02/27 03:18:16;;;;;;;;;;;;;;;9.72;67.39;102630.91;1271505;23;657;-64
2023/02/27 03:19:06;;;;;;;;;;;;;;;9.71;67.27;102639.81;1271979;23;716;-64
2023/02/27 03:19:57;;;;;;;;;;;;;;;9.73;67.31;102635.31;1270459;23;678;-64
2023/02/27 03:20:47;;;;;;;;;;;;;;;9.71;67.08;102632.69;1272967;23;689;-64
2023/02/27 03:21:37;;;;;;;;;;;;;;;9.69;67.17;102637.19;1273236;23;622;-64
2023/02/27 03:22:29;;;;;;;;;;;;;;;9.69;66.97;102639.00;1271549;23;653;-64
2023/02/27 03:23:20;;;;;;;;;;;;;;;9.70;66.97;102640.72;1271402;23;1881;-65
2023/02/27 03:24:11;;;;;;;;;;;;;;;9.70;67.33;102638.94;1270019;23;759;-65
2023/02/27 03:25:01;;;;;;;;;;;;;;;9.69;67.29;102636.31;1271631;23;689;-65
2023/02/27 03:25:52;;;;;;;;;;;;;;;9.69;67.17;102636.31;1272450;23;662;-64
2023/02/27 03:26:42;;;;;;;;;;;;;;;9.70;67.50;102638.06;1269856;23;590;-65
2023/02/27 03:27:32;;;;;;;;;;;;;;;9.70;67.54;102640.72;1271747;23;677;-65
2023/02/27 03:28:23;;;;;;;;;;;;;;;9.69;67.28;102639.84;1269864;23;634;-64
2023/02/27 03:29:13;;;;;;;;;;;;;;;9.68;67.08;102638.13;1271763;23;681;-65
2023/02/27 03:30:04;;;;;;;;;;;;;;;9.68;66.86;102646.09;1270066;23;652;-65
2023/02/27 03:30:55;;;;;;;;;;;;;;;9.68;66.94;102638.13;1269270;23;646;-65
2023/02/27 03:31:45;;;;;;;;;;;;;;;9.69;67.05;102639.00;1273449;23;672;-64
2023/02/27 03:32:36;;;;;;;;;;;;;;;9.67;67.18;102636.38;1273467;23;654;-64
2023/02/27 03:33:26;;;;;;;;;;;;;;;9.66;67.16;102633.78;1271554;23;647;-64
2023/02/27 03:34:16;;;;;;;;;;;;;;;9.66;67.07;102642.66;1270555;23;681;-64
2023/02/27 03:35:07;;;;;;;;;;;;;;;9.68;67.35;102637.25;1272954;23;677;-63
2023/02/27 03:35:57;;;;;;;;;;;;;;;9.69;67.31;102639.84;1273157;23;669;-63
2023/02/27 03:36:48;;;;;;;;;;;;;;;9.68;66.85;102637.25;1270103;23;666;-64
2023/02/27 03:37:38;;;;;;;;;;;;;;;9.65;67.49;102632.91;1271816;23;646;-64
2023/02/27 03:38:30;;;;;;;;;;;;;;;9.64;67.18;102630.31;1272565;23;828;-63
2023/02/27 03:39:21;;;;;;;;;;;;;;;9.62;67.26;102626.81;1270298;23;638;-63
2023/02/27 03:40:11;;;;;;;;;;;;;;;9.61;67.55;102630.41;1269870;23;658;-63
2023/02/27 03:41:01;;;;;;;;;;;;;;;9.60;67.56;102636.66;1271633;23;654;-64
2023/02/27 03:41:52;;;;;;;;;;;;;;;9.61;67.32;102630.41;1269811;23;645;-64
2023/02/27 03:42:42;;;;;;;;;;;;;;;9.62;66.99;102632.16;1271609;23;661;-64
2023/02/27 03:43:33;;;;;;;;;;;;;;;9.63;67.32;102625.91;1271319;23;1932;-64
2023/02/27 03:44:23;;;;;;;;;;;;;;;9.62;67.39;102633.00;1271791;23;623;-64
2023/02/27 03:45:14;;;;;;;;;;;;;;;9.62;67.41;102638.34;1269847;23;623;-64
2023/02/27 03:46:04;;;;;;;;;;;;;;;9.62;67.47;102634.81;1271862;23;643;-64
2023/02/27 03:46:54;;;;;;;;;;;;;;;9.60;67.48;102634.84;1273286;23;622;-64
2023/02/27 03:47:45;;;;;;;;;;;;;;;9.57;67.72;102637.59;1271339;23;613;-63
2023/02/27 03:48:35;;;;;;;;;;;;;;;9.58;67.18;102633.16;1271911;23;665;-63
2023/02/27 03:49:26;;;;;;;;;;;;;;;9.57;67.39;102628.75;1272529;23;838;-64
2023/02/27 03:50:16;;;;;;;;;;;;;;;9.55;67.67;102625.25;1271761;23;800;-64
2023/02/27 03:51:07;;;;;;;;;;;;;;;9.54;67.71;102631.50;1270359;23;623;-64
2023/02/27 03:51:57;;;;;;;;;;;;;;;9.56;67.45;102627.00;1273108;23;622;-64
2023/02/27 03:52:48;;;;;;;;;;;;;;;9.58;67.39;102628.72;1273472;23;662;-64
2023/02/27 03:53:38;;;;;;;;;;;;;;;9.58;67.28;102633.16;1271950;23;607;-64
2023/02/27 03:54:29;;;;;;;;;;;;;;;9.58;67.51;102627.84;1272410;23;618;-64
2023/02/27 03:55:19;;;;;;;;;;;;;;;9.59;66.97;102618.94;1271799;23;677;-64
2023/02/27 03:56:09;;;;;;;;;;;;;;;9.59;67.34;102625.13;1271852;23;670;-63
2023/02/27 03:57:00;;;;;;;;;;;;;;;9.59;67.26;102625.13;1271614;23;626;-63
2023/02/27 03:57:50;;;;;;;;;;;;;;;9.59;67.27;102626.91;1271680;23;653;-64
2023/02/27 03:58:41;;;;;;;;;;;;;;;9.59;67.45;102632.25;1269583;23;1073;-65
2023/02/27 03:59:31;;;;;;;;;;;;;;;9.59;67.32;102633.09;1271250;23;642;-64
2023/02/27 04:00:22;;;;;;;;;;;;;;;9.59;67.45;102634.91;1271745;23;630;-64
2023/02/27 04:01:12;;;;;;;;;;;;;;;9.56;67.47;102633.19;1271589;23;666;-64
2023/02/27 04:02:02;;;;;;;;;;;;;;;9.56;67.29;102627.88;1271690;23;642;-64
2023/02/27 04:02:53;;;;;;;;;;;;;;;9.54;67.48;102629.72;1269573;23;634;-64
2023/02/27 04:03:43;;;;;;;;;;;;;;;9.57;67.36;102631.41;1271485;23;1902;-64
2023/02/27 04:04:37;;;;;;;;;;;;;;;9.56;67.30;102632.34;1272256;23;687;-64
2023/02/27 04:05:27;;;;;;;;;;;;;;;9.56;67.40;102635.00;1271756;23;810;-64
2023/02/27 04:07:27;;;;;;;;;;;;;;;9.53;67.36;102640.41;1272683;23;633;-64
2023/02/27 04:08:18;;;;;;;;;;;;;;;9.54;67.15;102639.50;1272377;23;627;-64
2023/02/27 04:09:08;;;;;;;;;;;;;;;9.53;67.55;102638.63;1270103;23;697;-64
2023/02/27 04:09:59;;;;;;;;;;;;;;;9.51;67.62;102640.44;1271541;23;661;-64
2023/02/27 04:10:49;;;;;;;;;;;;;;;9.51;67.50;102642.25;1269721;23;646;-64
2023/02/27 04:11:40;;;;;;;;;;;;;;;9.50;67.54;102640.50;1271668;23;622;-64
2023/02/27 04:12:30;;;;;;;;;;;;;;;9.49;67.68;102649.44;1271577;23;673;-64
2023/02/27 04:13:20;;;;;;;;;;;;;;;9.50;67.50;102638.72;1271888;23;662;-64
2023/02/27 04:14:11;;;;;;;;;;;;;;;9.51;67.31;102639.59;1271915;23;622;-64
2023/02/27 04:15:01;;;;;;;;;;;;;;;9.51;67.28;102639.59;1269945;23;627;-64
2023/02/27 04:15:52;;;;;;;;;;;;;;;9.52;67.60;102654.63;1272174;23;669;-64
2023/02/27 04:16:43;;;;;;;;;;;;;;;9.51;67.58;102645.78;1271438;23;626;-64
2023/02/27 04:17:35;;;;;;;;;;;;;;;9.48;67.40;102647.69;1271388;23;587;-63
2023/02/27 04:18:25;;;;;;;;;;;;;;;9.48;67.37;102653.00;1271460;23;602;-64
2023/02/27 04:19:16;;;;;;;;;;;;;;;9.48;67.73;102650.34;1270292;23;583;-64
2023/02/27 04:20:06;;;;;;;;;;;;;;;9.47;67.57;102640.63;1269768;23;623;-64
2023/02/27 04:20:57;;;;;;;;;;;;;;;9.48;67.37;102650.34;1269484;23;634;-64
2023/02/27 04:21:47;;;;;;;;;;;;;;;9.48;67.34;102658.34;1270026;23;1151;-63
2023/02/27 04:22:38;;;;;;;;;;;;;;;9.48;67.50;102650.34;1273251;23;657;-64
2023/02/27 04:23:28;;;;;;;;;;;;;;;9.48;67.54;102650.34;1271478;23;1881;-63
2023/02/27 04:24:18;;;;;;;;;;;;;;;9.47;67.64;102653.94;1271639;23;638;-64
2023/02/27 04:25:09;;;;;;;;;;;;;;;9.45;67.51;102656.63;1271290;23;618;-64
2023/02/27 04:25:59;;;;;;;;;;;;;;;9.44;67.67;102657.56;1271596;23;657;-64
2023/02/27 04:26:50;;;;;;;;;;;;;;;9.47;67.63;102653.94;1271297;23;666;-64
2023/02/27 04:27:40;;;;;;;;;;;;;;;9.49;67.38;102649.44;1271595;23;665;-65
2023/02/27 04:28:31;;;;;;;;;;;;;;;9.51;67.19;102650.22;1271408;23;621;-64
2023/02/27 04:29:22;;;;;;;;;;;;;;;9.51;67.42;102655.53;1269956;23;704;-64